Time;durP1;ratioP1;P1;durP2;ratioP2;P2;SDS_P1;SDS_P2;PMS_P1;PMS_P2;Temp;Humidity;BMP_temperature;BMP_pressure;BME280_temperature;BME280_humidity;BME280_pressure;Samples;Min_cycle;Max_cycle;Signal;HPM_P1;HPM_P2
2021/09/23 00:00:20;;;;;;;4.07;2.38;;;;;;;;;;7386548;19;20021;-52
2021/09/23 00:02:49;;;;;;;5.57;2.45;;;;;;;;;;7387927;19;20007;-53
2021/09/23 00:05:20;;;;;;;7.18;2.42;;;;;;;;;;7391229;19;20085;-51
2021/09/23 00:07:50;;;;;;;4.43;2.70;;;;;;;;;;7389391;19;20500;-56
2021/09/23 00:10:26;;;;;;;5.90;2.58;;;;;;;;;;7388547;19;20010;-56
2021/09/23 00:12:55;;;;;;;4.13;2.42;;;;;;;;;;7389800;19;20039;-52
2021/09/23 00:15:23;;;;;;;5.00;2.63;;;;;;;;;;7389106;19;20017;-53
2021/09/23 00:17:54;;;;;;;5.53;3.50;;;;;;;;;;7389467;19;20021;-53
2021/09/23 00:20:25;;;;;;;5.05;3.13;;;;;;;;;;7389137;19;20082;-52
2021/09/23 00:22:52;;;;;;;5.13;3.08;;;;;;;;;;7394881;19;20027;-55
2021/09/23 00:25:20;;;;;;;3.97;2.47;;;;;;;;;;7397591;19;20022;-51
2021/09/23 00:27:47;;;;;;;5.53;3.22;;;;;;;;;;7399972;19;20010;-49
2021/09/23 00:30:15;;;;;;;5.15;2.63;;;;;;;;;;7396912;19;20017;-54
2021/09/23 00:32:42;;;;;;;4.22;2.30;;;;;;;;;;7396918;19;20012;-52
2021/09/23 00:35:11;;;;;;;4.85;2.65;;;;;;;;;;7397045;19;20475;-55
2021/09/23 00:37:38;;;;;;;4.53;2.58;;;;;;;;;;7396291;19;20481;-57
2021/09/23 00:40:08;;;;;;;4.60;2.42;;;;;;;;;;7398050;19;20011;-45
2021/09/23 00:42:40;;;;;;;4.22;2.47;;;;;;;;;;7396133;19;20018;-56
2021/09/23 00:45:10;;;;;;;6.25;3.13;;;;;;;;;;7397710;19;20011;-49
2021/09/23 00:47:38;;;;;;;8.25;2.90;;;;;;;;;;7397468;19;20006;-52
2021/09/23 00:50:07;;;;;;;6.63;2.72;;;;;;;;;;7397426;19;20058;-52
2021/09/23 00:52:37;;;;;;;4.65;2.58;;;;;;;;;;7395503;19;20018;-45
2021/09/23 00:55:07;;;;;;;4.60;2.53;;;;;;;;;;7394025;19;20499;-48
2021/09/23 00:57:35;;;;;;;4.00;2.38;;;;;;;;;;7396336;19;20053;-45
2021/09/23 01:00:05;;;;;;;5.25;3.47;;;;;;;;;;7393962;19;20014;-53
2021/09/23 01:02:46;;;;;;;5.80;3.47;;;;;;;;;;7393713;19;20092;-53
2021/09/23 01:05:14;;;;;;;5.65;2.80;;;;;;;;;;7394984;19;20019;-54
2021/09/23 01:07:49;;;;;;;4.43;2.63;;;;;;;;;;7394146;19;20017;-54
2021/09/23 01:10:19;;;;;;;5.05;2.80;;;;;;;;;;7394580;19;20015;-54
2021/09/23 01:12:47;;;;;;;6.15;2.67;;;;;;;;;;7394216;19;20467;-50
2021/09/23 01:15:17;;;;;;;5.65;2.92;;;;;;;;;;7392544;19;20029;-51
2021/09/23 01:17:48;;;;;;;5.82;2.70;;;;;;;;;;7393399;19;20038;-54
2021/09/23 01:20:18;;;;;;;6.50;2.90;;;;;;;;;;7394031;19;20042;-51
2021/09/23 01:22:47;;;;;;;4.35;2.67;;;;;;;;;;7392838;19;20023;-52
2021/09/23 01:25:18;;;;;;;5.13;2.92;;;;;;;;;;7395756;19;20007;-53
2021/09/23 01:27:48;;;;;;;5.10;3.25;;;;;;;;;;7395083;19;20082;-55
2021/09/23 01:30:25;;;;;;;6.82;2.65;;;;;;;;;;7393351;19;20022;-50
2021/09/23 01:32:53;;;;;;;4.20;2.50;;;;;;;;;;7393604;19;20007;-56
2021/09/23 01:35:22;;;;;;;4.55;2.80;;;;;;;;;;7392337;19;20014;-54
2021/09/23 01:37:50;;;;;;;4.53;2.40;;;;;;;;;;7395057;19;20037;-52
2021/09/23 01:40:20;;;;;;;3.97;2.47;;;;;;;;;;7395923;19;20372;-54
2021/09/23 01:42:49;;;;;;;4.47;2.60;;;;;;;;;;7392773;19;20010;-51
2021/09/23 01:45:16;;;;;;;5.00;2.30;;;;;;;;;;7395371;19;20035;-50
2021/09/23 01:47:48;;;;;;;4.13;2.40;;;;;;;;;;7392854;19;20015;-53
2021/09/23 01:50:19;;;;;;;5.50;2.70;;;;;;;;;;7392134;19;20014;-55
2021/09/23 01:52:51;;;;;;;3.97;2.75;;;;;;;;;;7392510;19;20039;-51
2021/09/23 01:55:18;;;;;;;5.95;2.92;;;;;;;;;;7394504;19;20010;-52
2021/09/23 01:57:47;;;;;;;4.95;3.25;;;;;;;;;;7392924;19;20467;-54
2021/09/23 02:00:17;;;;;;;5.07;2.60;;;;;;;;;;7392589;19;20038;-52
2021/09/23 02:02:51;;;;;;;5.60;3.22;;;;;;;;;;7393072;19;20015;-51
2021/09/23 02:05:39;;;;;;;4.82;2.65;;;;;;;;;;7394820;19;20015;-54
2021/09/23 02:08:07;;;;;;;3.50;1.85;;;;;;;;;;7393681;19;20061;-54
2021/09/23 02:10:35;;;;;;;13.50;5.30;;;;;;;;;;7397222;19;20014;-52
2021/09/23 02:13:02;;;;;;;5.25;2.45;;;;;;;;;;7392842;19;20022;-54
2021/09/23 02:15:31;;;;;;;3.88;2.22;;;;;;;;;;7392270;19;20017;-61
2021/09/23 02:17:59;;;;;;;8.45;2.95;;;;;;;;;;7392060;19;20043;-51
2021/09/23 02:20:29;;;;;;;5.32;2.90;;;;;;;;;;7391111;19;20344;-48
2021/09/23 02:22:59;;;;;;;4.78;2.50;;;;;;;;;;7391378;19;20023;-55
2021/09/23 02:25:32;;;;;;;3.80;2.10;;;;;;;;;;7393105;19;20034;-53
2021/09/23 02:27:59;;;;;;;5.30;3.13;;;;;;;;;;7391984;19;20107;-50
2021/09/23 02:30:28;;;;;;;7.13;3.03;;;;;;;;;;7393688;19;20037;-51
2021/09/23 02:32:56;;;;;;;5.07;2.80;;;;;;;;;;7393313;19;20002;-53
2021/09/23 02:35:24;;;;;;;5.38;2.88;;;;;;;;;;7389937;19;20050;-57
2021/09/23 02:37:52;;;;;;;6.35;3.30;;;;;;;;;;7391371;19;20014;-56
2021/09/23 02:40:20;;;;;;;5.93;3.60;;;;;;;;;;7391314;19;20423;-58
2021/09/23 02:42:47;;;;;;;7.22;4.57;;;;;;;;;;7392433;19;20014;-56
2021/09/23 02:45:15;;;;;;;6.63;3.17;;;;;;;;;;7392708;19;20010;-54
2021/09/23 02:47:42;;;;;;;3.80;2.42;;;;;;;;;;7391282;19;20020;-52
2021/09/23 02:50:10;;;;;;;5.88;3.20;;;;;;;;;;7390918;19;20035;-52
2021/09/23 02:52:38;;;;;;;5.32;2.95;;;;;;;;;;7391162;19;20380;-52
2021/09/23 02:55:06;;;;;;;4.35;2.45;;;;;;;;;;7390887;19;20036;-51
2021/09/23 02:57:33;;;;;;;6.47;3.50;;;;;;;;;;7392506;19;20035;-52
2021/09/23 03:00:01;;;;;;;6.47;2.80;;;;;;;;;;7388762;19;20479;-50
2021/09/23 03:02:28;;;;;;;7.53;4.32;;;;;;;;;;7390316;19;20026;-52
2021/09/23 03:18:27;;;;;;;4.43;2.78;;;;;;;;;;7390429;19;20001;-53
2021/09/23 03:20:54;;;;;;;8.10;3.38;;;;;;;;;;7388198;19;20015;-53
2021/09/23 03:23:22;;;;;;;5.90;3.42;;;;;;;;;;7390999;19;20482;-54
2021/09/23 03:25:50;;;;;;;9.05;2.90;;;;;;;;;;7389893;19;20475;-49
2021/09/23 03:28:19;;;;;;;6.45;3.55;;;;;;;;;;7391223;19;20007;-50
2021/09/23 03:30:46;;;;;;;6.40;3.55;;;;;;;;;;7388078;19;20022;-53
2021/09/23 03:33:14;;;;;;;6.05;3.53;;;;;;;;;;7391795;19;20007;-51
2021/09/23 03:35:41;;;;;;;7.53;3.10;;;;;;;;;;7391563;19;20010;-51
2021/09/23 03:38:08;;;;;;;6.22;3.08;;;;;;;;;;7390548;19;20288;-56
2021/09/23 03:40:36;;;;;;;6.25;3.55;;;;;;;;;;7390414;19;20021;-52
2021/09/23 03:43:03;;;;;;;6.00;3.13;;;;;;;;;;7389933;19;20015;-51
2021/09/23 03:45:31;;;;;;;10.85;4.68;;;;;;;;;;7391614;19;20010;-56
2021/09/23 03:47:58;;;;;;;8.75;5.22;;;;;;;;;;7391112;19;20017;-50
2021/09/23 03:50:25;;;;;;;6.70;3.38;;;;;;;;;;7389867;19;20015;-56
2021/09/23 03:52:53;;;;;;;10.00;4.93;;;;;;;;;;7388860;19;20014;-62
2021/09/23 03:55:20;;;;;;;7.75;3.80;;;;;;;;;;7389219;19;20018;-54
2021/09/23 03:57:48;;;;;;;5.70;3.05;;;;;;;;;;7388282;19;20345;-56
2021/09/23 04:00:20;;;;;;;11.20;4.53;;;;;;;;;;7386968;19;20011;-56
2021/09/23 04:02:48;;;;;;;7.65;4.75;;;;;;;;;;7389453;19;20013;-61
2021/09/23 04:05:16;;;;;;;11.05;5.07;;;;;;;;;;7391534;19;20356;-55
2021/09/23 04:07:43;;;;;;;9.40;4.78;;;;;;;;;;7389964;19;20011;-60
2021/09/23 04:10:11;;;;;;;9.20;4.75;;;;;;;;;;7389603;19;20040;-49
2021/09/23 04:12:40;;;;;;;8.27;4.50;;;;;;;;;;7389264;19;20018;-51
2021/09/23 04:15:08;;;;;;;7.60;4.03;;;;;;;;;;7389713;19;20014;-60
2021/09/23 04:17:35;;;;;;;10.27;5.07;;;;;;;;;;7389440;19;20019;-53
2021/09/23 04:20:04;;;;;;;9.23;4.82;;;;;;;;;;7388299;19;20336;-52
2021/09/23 04:22:31;;;;;;;11.25;5.63;;;;;;;;;;7393349;19;20035;-51
2021/09/23 04:25:00;;;;;;;12.38;5.20;;;;;;;;;;7388121;19;20107;-49
2021/09/23 04:27:27;;;;;;;7.93;4.68;;;;;;;;;;7390712;19;20007;-54
2021/09/23 04:29:55;;;;;;;9.23;4.57;;;;;;;;;;7390004;19;20014;-53
2021/09/23 04:32:22;;;;;;;9.52;5.28;;;;;;;;;;7389796;19;20507;-52
2021/09/23 04:34:50;;;;;;;11.10;5.85;;;;;;;;;;7390252;19;20019;-54
2021/09/23 04:37:17;;;;;;;9.45;5.30;;;;;;;;;;7390005;19;20018;-53
2021/09/23 04:39:48;;;;;;;11.85;6.13;;;;;;;;;;7385666;19;20010;-50
2021/09/23 04:42:15;;;;;;;11.40;4.38;;;;;;;;;;7389705;19;20503;-52
2021/09/23 04:44:43;;;;;;;9.07;4.90;;;;;;;;;;7389053;19;20078;-53
2021/09/23 04:47:11;;;;;;;9.95;5.18;;;;;;;;;;7388430;19;20086;-50
2021/09/23 04:49:40;;;;;;;14.57;6.55;;;;;;;;;;7388087;19;20018;-55
2021/09/23 04:52:08;;;;;;;8.30;5.68;;;;;;;;;;7389276;19;20035;-50
2021/09/23 04:54:36;;;;;;;10.27;6.35;;;;;;;;;;7387516;19;20026;-53
2021/09/23 04:57:04;;;;;;;9.52;5.45;;;;;;;;;;7389711;19;20026;-52
2021/09/23 04:59:37;;;;;;;9.48;6.00;;;;;;;;;;7386036;19;20038;-58
2021/09/23 05:02:04;;;;;;;12.00;6.18;;;;;;;;;;7389094;19;20054;-61
2021/09/23 05:04:32;;;;;;;19.05;9.15;;;;;;;;;;7386949;19;20014;-54
2021/09/23 05:07:00;;;;;;;13.10;8.23;;;;;;;;;;7392419;19;20014;-51
2021/09/23 05:09:30;;;;;;;11.10;7.13;;;;;;;;;;7391336;19;20015;-53
2021/09/23 05:11:58;;;;;;;13.80;7.90;;;;;;;;;;7393558;19;20470;-49
2021/09/23 05:14:29;;;;;;;12.70;7.65;;;;;;;;;;7396402;19;20006;-52
2021/09/23 05:16:56;;;;;;;12.82;7.07;;;;;;;;;;7395734;19;20086;-56
2021/09/23 05:19:24;;;;;;;12.50;7.05;;;;;;;;;;7391710;19;20010;-55
2021/09/23 05:21:51;;;;;;;9.65;6.10;;;;;;;;;;7394587;19;20018;-57
2021/09/23 05:24:20;;;;;;;10.63;6.70;;;;;;;;;;7392811;19;20046;-60
2021/09/23 05:26:47;;;;;;;13.70;7.43;;;;;;;;;;7396189;19;20015;-61
2021/09/23 05:29:15;;;;;;;17.05;10.27;;;;;;;;;;7395651;19;20042;-56
2021/09/23 05:31:53;;;;;;;14.93;9.20;;;;;;;;;;7393712;19;20015;-61
2021/09/23 05:34:22;;;;;;;10.23;7.15;;;;;;;;;;7395202;19;20014;-59
2021/09/23 05:36:50;;;;;;;13.23;8.15;;;;;;;;;;7395920;19;20094;-54
2021/09/23 05:39:17;;;;;;;13.25;8.40;;;;;;;;;;7394582;19;20007;-56
2021/09/23 05:41:45;;;;;;;13.55;7.72;;;;;;;;;;7395386;19;20031;-56
2021/09/23 05:44:12;;;;;;;11.10;7.20;;;;;;;;;;7395637;19;20359;-55
2021/09/23 05:46:41;;;;;;;9.55;6.32;;;;;;;;;;7395236;19;20086;-57
2021/09/23 05:49:10;;;;;;;10.55;6.00;;;;;;;;;;7393474;19;20357;-54
2021/09/23 05:51:40;;;;;;;114.50;37.60;;;;;;;;;;7393156;19;20015;-52
2021/09/23 05:54:07;;;;;;;36.67;17.25;;;;;;;;;;7395513;19;20007;-55
2021/09/23 05:56:35;;;;;;;22.15;9.90;;;;;;;;;;7394564;19;20022;-55
2021/09/23 05:59:02;;;;;;;14.73;7.95;;;;;;;;;;7393317;19;20027;-57
2021/09/23 06:01:29;;;;;;;11.02;6.40;;;;;;;;;;7393029;19;20073;-58
2021/09/23 06:03:57;;;;;;;14.10;7.78;;;;;;;;;;7394753;19;20014;-56
2021/09/23 06:06:25;;;;;;;13.20;6.85;;;;;;;;;;7396963;19;20486;-52
2021/09/23 06:08:52;;;;;;;10.50;6.38;;;;;;;;;;7392679;19;20116;-55
2021/09/23 06:11:20;;;;;;;9.23;5.70;;;;;;;;;;7393836;19;20019;-56
2021/09/23 06:13:47;;;;;;;10.48;6.30;;;;;;;;;;7394377;19;20014;-67
2021/09/23 06:16:14;;;;;;;17.08;9.40;;;;;;;;;;7394851;19;20027;-58
2021/09/23 06:18:46;;;;;;;17.75;9.18;;;;;;;;;;7393742;19;20029;-58
2021/09/23 06:21:16;;;;;;;13.43;7.35;;;;;;;;;;7394134;19;20022;-59
2021/09/23 06:23:45;;;;;;;12.93;6.47;;;;;;;;;;7394737;19;20039;-58
2021/09/23 06:26:14;;;;;;;9.13;5.30;;;;;;;;;;7393658;19;20011;-58
2021/09/23 06:28:44;;;;;;;10.63;5.15;;;;;;;;;;7393420;19;20017;-64
2021/09/23 06:31:13;;;;;;;23.23;11.27;;;;;;;;;;7391665;19;20017;-62
2021/09/23 06:33:48;;;;;;;37.92;17.98;;;;;;;;;;7391407;19;20091;-55
2021/09/23 06:36:17;;;;;;;17.50;8.32;;;;;;;;;;7393113;19;20018;-57
2021/09/23 06:38:45;;;;;;;18.70;7.35;;;;;;;;;;7392830;19;20015;-61
2021/09/23 06:41:13;;;;;;;12.25;6.68;;;;;;;;;;7392538;19;20534;-56
2021/09/23 06:43:42;;;;;;;11.80;6.00;;;;;;;;;;7393810;19;20040;-51
2021/09/23 06:46:12;;;;;;;9.82;5.70;;;;;;;;;;7393111;19;20378;-58
2021/09/23 06:48:40;;;;;;;13.52;7.25;;;;;;;;;;7393575;19;20058;-55
2021/09/23 06:51:08;;;;;;;11.30;6.68;;;;;;;;;;7393252;19;20018;-63
2021/09/23 06:53:35;;;;;;;12.45;6.60;;;;;;;;;;7392207;19;20042;-54
2021/09/23 06:56:02;;;;;;;10.15;5.90;;;;;;;;;;7392759;19;20025;-58
2021/09/23 06:58:30;;;;;;;15.02;6.80;;;;;;;;;;7391655;19;20017;-59
2021/09/23 07:01:16;;;;;;;14.32;6.68;;;;;;;;;;7391325;19;20017;-53
2021/09/23 07:04:03;;;;;;;8.80;5.82;;;;;;;;;;7392503;19;20018;-59
2021/09/23 07:06:53;;;;;;;12.10;6.57;;;;;;;;;;7393258;19;20052;-58
2021/09/23 07:09:26;;;;;;;;;;;;;;;;;;7389622;19;20022;-58
2021/09/23 07:11:58;;;;;;;12.45;6.03;;;;;;;;;;7390020;19;19996;-59
2021/09/23 07:14:27;;;;;;;10.60;6.53;;;;;;;;;;7389907;19;20047;-63
2021/09/23 07:16:54;;;;;;;13.65;6.57;;;;;;;;;;7389961;19;20010;-63
2021/09/23 07:19:22;;;;;;;10.27;5.57;;;;;;;;;;7389843;19;20019;-57
2021/09/23 07:21:55;;;;;;;10.07;5.30;;;;;;;;;;7389397;19;20010;-58
2021/09/23 07:24:23;;;;;;;9.15;6.30;;;;;;;;;;7391308;19;20082;-54
2021/09/23 07:26:51;;;;;;;119.70;56.35;;;;;;;;;;7390804;19;20010;-58
2021/09/23 07:29:18;;;;;;;16.95;9.20;;;;;;;;;;7389843;19;20010;-61
2021/09/23 07:31:46;;;;;;;10.50;6.07;;;;;;;;;;7388228;19;20029;-65
2021/09/23 07:34:14;;;;;;;10.07;5.43;;;;;;;;;;7391170;19;20007;-57
2021/09/23 07:36:41;;;;;;;11.18;6.00;;;;;;;;;;7391625;19;20011;-56
2021/09/23 07:39:09;;;;;;;10.50;5.68;;;;;;;;;;7389474;19;20035;-58
2021/09/23 07:41:40;;;;;;;8.07;5.07;;;;;;;;;;7390985;19;20022;-64
2021/09/23 07:44:10;;;;;;;7.47;4.95;;;;;;;;;;7390238;19;20014;-54
2021/09/23 07:46:37;;;;;;;7.60;5.05;;;;;;;;;;7388843;19;20022;-56
2021/09/23 07:49:06;;;;;;;9.00;5.45;;;;;;;;;;7390480;19;20023;-58
2021/09/23 07:51:34;;;;;;;7.45;5.18;;;;;;;;;;7385740;19;20018;-62
2021/09/23 07:54:02;;;;;;;8.43;4.85;;;;;;;;;;7387174;19;20021;-59
2021/09/23 07:56:32;;;;;;;7.57;4.78;;;;;;;;;;7363273;19;20599;-60
2021/09/23 07:59:01;;;;;;;7.32;5.03;;;;;;;;;;7384027;19;20092;-61
2021/09/23 08:01:29;;;;;;;9.40;5.15;;;;;;;;;;7386712;19;20078;-60
2021/09/23 08:04:01;;;;;;;8.60;4.50;;;;;;;;;;7392369;19;20474;-59
2021/09/23 08:06:30;;;;;;;7.10;4.65;;;;;;;;;;7387271;19;20014;-64
2021/09/23 08:08:59;;;;;;;7.45;4.20;;;;;;;;;;7387448;19;20672;-68
2021/09/23 08:11:26;;;;;;;7.38;4.78;;;;;;;;;;7393428;19;20086;-58
2021/09/23 08:14:18;;;;;;;6.10;4.50;;;;;;;;;;7386989;19;20783;-59
2021/09/23 08:16:56;;;;;;;10.45;4.45;;;;;;;;;;7386198;19;20019;-60
2021/09/23 08:20:14;;;;;;;8.38;4.47;;;;;;;;;;7388927;19;20011;-65
2021/09/23 08:22:50;;;;;;;11.98;6.32;;;;;;;;;;7389658;19;20010;-58
2021/09/23 08:25:18;;;;;;;77.47;41.55;;;;;;;;;;7389125;19;20114;-61
2021/09/23 08:27:45;;;;;;;8.07;5.93;;;;;;;;;;7387942;19;20006;-59
2021/09/23 08:30:13;;;;;;;9.82;4.78;;;;;;;;;;7389168;19;20012;-65
2021/09/23 08:32:41;;;;;;;6.10;4.03;;;;;;;;;;7388425;19;20070;-66
2021/09/23 08:35:16;;;;;;;6.80;4.93;;;;;;;;;;7387816;19;20011;-64
2021/09/23 08:38:04;;;;;;;5.82;4.13;;;;;;;;;;7385602;19;20014;-58
2021/09/23 08:41:02;;;;;;;6.22;4.30;;;;;;;;;;7387550;19;20025;-69
2021/09/23 08:44:06;;;;;;;7.07;4.45;;;;;;;;;;7393990;19;20018;-60
2021/09/23 08:47:13;;;;;;;7.57;4.05;;;;;;;;;;7396370;19;20007;-64
2021/09/23 08:50:16;;;;;;;8.88;4.60;;;;;;;;;;7396556;19;20011;-65
2021/09/23 08:53:12;;;;;;;6.63;4.53;;;;;;;;;;7394857;19;20018;-63
2021/09/23 08:55:44;;;;;;;5.68;3.85;;;;;;;;;;7394838;19;20018;-57
2021/09/23 08:58:14;;;;;;;7.38;4.72;;;;;;;;;;7397521;19;20034;-66
2021/09/23 09:01:08;;;;;;;9.10;4.30;;;;;;;;;;7393610;19;20015;-66
2021/09/23 09:04:01;;;;;;;10.23;4.80;;;;;;;;;;7394484;19;20018;-66
2021/09/23 09:06:54;;;;;;;7.18;4.63;;;;;;;;;;7394891;19;20021;-57
2021/09/23 09:09:45;;;;;;;7.43;4.38;;;;;;;;;;7393130;19;20016;-64
2021/09/23 09:12:14;;;;;;;7.55;5.35;;;;;;;;;;7394967;19;20077;-53
2021/09/23 09:14:47;;;;;;;7.18;4.70;;;;;;;;;;7394888;19;20015;-58
2021/09/23 09:17:18;;;;;;;6.55;4.63;;;;;;;;;;7397401;19;20021;-57
2021/09/23 09:19:57;;;;;;;6.20;3.80;;;;;;;;;;7392930;19;20019;-54
2021/09/23 09:22:27;;;;;;;7.28;4.47;;;;;;;;;;7395712;19;20491;-64
2021/09/23 09:25:02;;;;;;;7.13;4.07;;;;;;;;;;7393749;19;20017;-57
2021/09/23 09:27:29;;;;;;;8.45;4.13;;;;;;;;;;7393215;19;20025;-58
2021/09/23 09:30:04;;;;;;;6.38;4.65;;;;;;;;;;7392966;19;20019;-62
2021/09/23 09:32:57;;;;;;;7.35;4.57;;;;;;;;;;7397916;19;20011;-58
2021/09/23 09:35:34;;;;;;;7.82;5.68;;;;;;;;;;7393420;19;20010;-65
2021/09/23 09:38:06;;;;;;;6.93;4.82;;;;;;;;;;7393581;19;20022;-56
2021/09/23 09:40:37;;;;;;;7.38;4.43;;;;;;;;;;7392540;19;20014;-65
2021/09/23 09:43:12;;;;;;;12.23;4.70;;;;;;;;;;7393167;19;20033;-58
2021/09/23 09:45:43;;;;;;;7.07;4.72;;;;;;;;;;7393669;19;20024;-61
2021/09/23 09:48:12;;;;;;;10.98;4.72;;;;;;;;;;7392986;19;20010;-58
2021/09/23 09:50:43;;;;;;;6.00;4.43;;;;;;;;;;7391758;19;20050;-60
2021/09/23 09:53:13;;;;;;;5.95;4.40;;;;;;;;;;7394326;19;20011;-54
2021/09/23 09:55:45;;;;;;;7.60;4.20;;;;;;;;;;7391327;19;20010;-57
2021/09/23 09:58:23;;;;;;;5.53;3.90;;;;;;;;;;7396172;19;20011;-62
2021/09/23 10:00:51;;;;;;;6.78;4.32;;;;;;;;;;7390288;19;20011;-57
2021/09/23 10:03:20;;;;;;;5.43;3.50;;;;;;;;;;7392390;19;20010;-56
2021/09/23 10:05:48;;;;;;;6.40;4.10;;;;;;;;;;7390541;19;20022;-50
2021/09/23 10:08:21;;;;;;;8.88;4.75;;;;;;;;;;7395185;19;20094;-50
2021/09/23 10:10:51;;;;;;;6.30;4.60;;;;;;;;;;7393789;19;20023;-57
2021/09/23 10:13:20;;;;;;;6.13;4.47;;;;;;;;;;7392114;19;20014;-54
2021/09/23 10:15:48;;;;;;;7.20;4.60;;;;;;;;;;7395596;19;20043;-58
2021/09/23 10:18:16;;;;;;;6.38;4.47;;;;;;;;;;7388858;19;20514;-58
2021/09/23 10:20:48;;;;;;;38.65;19.55;;;;;;;;;;7388574;19;20539;-64
2021/09/23 10:23:16;;;;;;;54.33;27.90;;;;;;;;;;7395578;19;20026;-71
2021/09/23 10:25:52;;;;;;;5.55;4.38;;;;;;;;;;7392146;19;20033;-62
2021/09/23 10:28:22;;;;;;;6.05;4.43;;;;;;;;;;7392102;19;20019;-64
2021/09/23 10:30:49;;;;;;;6.60;4.25;;;;;;;;;;7392214;19;20014;-67
2021/09/23 10:33:20;;;;;;;6.68;4.63;;;;;;;;;;7390758;19;20800;-68
2021/09/23 10:35:49;;;;;;;6.88;4.70;;;;;;;;;;7391936;19;20074;-63
2021/09/23 10:38:28;;;;;;;6.85;4.15;;;;;;;;;;7393671;19;20023;-66
2021/09/23 10:40:58;;;;;;;6.38;5.20;;;;;;;;;;7394713;19;20028;-69
2021/09/23 10:43:30;;;;;;;7.35;4.57;;;;;;;;;;7390581;19;20024;-69
2021/09/23 10:46:00;;;;;;;6.43;4.80;;;;;;;;;;7391387;19;20538;-67
2021/09/23 10:48:40;;;;;;;7.10;4.25;;;;;;;;;;7391324;19;20014;-68
2021/09/23 10:51:09;;;;;;;6.43;4.65;;;;;;;;;;7390685;19;20015;-69
2021/09/23 10:53:37;;;;;;;6.68;4.40;;;;;;;;;;7390473;19;20045;-70
2021/09/23 10:56:13;;;;;;;6.47;4.13;;;;;;;;;;7391808;19;20015;-70
2021/09/23 10:58:44;;;;;;;6.75;4.45;;;;;;;;;;7391561;19;20019;-68
2021/09/23 11:01:30;;;;;;;6.82;4.80;;;;;;;;;;7389039;19;20056;-69
2021/09/23 11:04:00;;;;;;;8.07;4.72;;;;;;;;;;7390295;19;20010;-59
2021/09/23 11:06:35;;;;;;;11.18;4.78;;;;;;;;;;7389834;19;20011;-63
2021/09/23 11:09:23;;;;;;;7.40;4.50;;;;;;;;;;7390002;19;20011;-62
2021/09/23 11:12:06;;;;;;;5.97;4.28;;;;;;;;;;7392067;19;20107;-63
2021/09/23 11:14:48;;;;;;;11.38;4.50;;;;;;;;;;7393919;19;20017;-64
2021/09/23 11:17:19;;;;;;;33.70;17.30;;;;;;;;;;7392962;19;20046;-61
2021/09/23 11:19:57;;;;;;;8.50;5.53;;;;;;;;;;7389565;19;20443;-57
2021/09/23 11:22:34;;;;;;;7.55;5.20;;;;;;;;;;7391728;19;20006;-57
2021/09/23 11:25:14;;;;;;;7.65;5.30;;;;;;;;;;7388855;19;20487;-64
2021/09/23 11:27:48;;;;;;;9.48;5.45;;;;;;;;;;7390325;19;20048;-62
2021/09/23 11:30:20;;;;;;;9.57;5.82;;;;;;;;;;7389929;19;20010;-59
2021/09/23 11:32:55;;;;;;;10.25;5.07;;;;;;;;;;7389234;19;20455;-61
2021/09/23 11:35:35;;;;;;;8.35;5.25;;;;;;;;;;7388390;19;20015;-66
2021/09/23 11:38:04;;;;;;;8.70;4.90;;;;;;;;;;7389935;19;20031;-61
2021/09/23 11:40:37;;;;;;;8.55;5.03;;;;;;;;;;7392573;19;20463;-66
2021/09/23 11:43:07;;;;;;;7.65;4.57;;;;;;;;;;7390843;19;20046;-65
2021/09/23 11:45:39;;;;;;;8.25;5.47;;;;;;;;;;7388506;19;20522;-62
2021/09/23 11:48:10;;;;;;;9.35;6.03;;;;;;;;;;7389487;19;20031;-65
2021/09/23 11:50:38;;;;;;;10.48;6.00;;;;;;;;;;7389428;19;20040;-62
2021/09/23 11:53:17;;;;;;;11.63;6.15;;;;;;;;;;7393537;19;20081;-65
2021/09/23 11:56:08;;;;;;;8.63;6.05;;;;;;;;;;7389886;19;20022;-66
2021/09/23 11:58:41;;;;;;;9.85;6.22;;;;;;;;;;7389366;19;20048;-60
2021/09/23 12:01:09;;;;;;;9.05;5.72;;;;;;;;;;7387063;19;20010;-65
2021/09/23 12:03:41;;;;;;;99.43;50.90;;;;;;;;;;7392346;19;20349;-61
2021/09/23 12:06:11;;;;;;;16.77;9.88;;;;;;;;;;7387451;19;20007;-62
2021/09/23 12:08:44;;;;;;;9.55;5.93;;;;;;;;;;7388196;19;20021;-64
2021/09/23 12:11:14;;;;;;;12.20;6.65;;;;;;;;;;7394102;19;20094;-60
2021/09/23 12:13:49;;;;;;;8.97;5.43;;;;;;;;;;7390090;19;20018;-63
2021/09/23 12:16:23;;;;;;;10.82;6.97;;;;;;;;;;7388484;19;20334;-61
2021/09/23 12:18:55;;;;;;;9.95;5.78;;;;;;;;;;7396113;19;20029;-62
2021/09/23 12:21:30;;;;;;;9.57;6.07;;;;;;;;;;7395557;19;20040;-60
2021/09/23 12:24:02;;;;;;;12.15;7.30;;;;;;;;;;7396240;19;20015;-61
2021/09/23 12:26:40;;;;;;;16.40;7.57;;;;;;;;;;7395877;19;20022;-61
2021/09/23 12:29:11;;;;;;;13.25;7.95;;;;;;;;;;7395692;19;20411;-61
2021/09/23 12:31:47;;;;;;;11.15;6.28;;;;;;;;;;7396081;19;20783;-60
2021/09/23 12:34:23;;;;;;;10.05;5.97;;;;;;;;;;7396737;19;20002;-61
2021/09/23 12:36:59;;;;;;;8.90;5.18;;;;;;;;;;7395584;19;20011;-63
2021/09/23 12:39:45;;;;;;;10.98;6.10;;;;;;;;;;7395960;19;20014;-61
2021/09/23 12:42:26;;;;;;;11.30;5.25;;;;;;;;;;7393550;19;20069;-60
2021/09/23 12:44:58;;;;;;;13.38;6.95;;;;;;;;;;7395348;19;20022;-60
2021/09/23 12:47:30;;;;;;;12.75;7.03;;;;;;;;;;7395094;19;20014;-61
2021/09/23 12:50:07;;;;;;;12.10;5.40;;;;;;;;;;7395572;19;20017;-54
2021/09/23 12:52:39;;;;;;;10.55;5.53;;;;;;;;;;7399621;19;20692;-59
2021/09/23 12:55:23;;;;;;;10.10;5.97;;;;;;;;;;7395495;19;20010;-55
2021/09/23 12:57:54;;;;;;;11.82;6.65;;;;;;;;;;7395127;19;20011;-64
2021/09/23 13:00:50;;;;;;;11.05;6.70;;;;;;;;;;7394449;19;20089;-59
2021/09/23 13:03:18;;;;;;;11.98;6.85;;;;;;;;;;7394166;19;20020;-52
2021/09/23 13:06:04;;;;;;;10.27;6.25;;;;;;;;;;7394219;19;20035;-46
2021/09/23 13:08:43;;;;;;;11.50;6.65;;;;;;;;;;7392579;19;20026;-61
2021/09/23 13:11:16;;;;;;;9.57;5.82;;;;;;;;;;7394455;19;20018;-46
2021/09/23 13:14:43;;;;;;;11.57;6.35;;;;;;;;;;7396711;19;20041;-64
2021/09/23 13:17:26;;;;;;;551.58;312.55;;;;;;;;;;7393837;19;20014;-51
2021/09/23 13:19:56;;;;;;;65.53;36.88;;;;;;;;;;7394184;19;20522;-51
2021/09/23 13:22:40;;;;;;;12.23;8.10;;;;;;;;;;7393185;19;20010;-53
2021/09/23 13:25:11;;;;;;;10.77;6.55;;;;;;;;;;7393588;19;20089;-53
2021/09/23 13:27:44;;;;;;;9.80;6.75;;;;;;;;;;7393869;19;20433;-55
2021/09/23 13:30:14;;;;;;;12.07;6.45;;;;;;;;;;7391204;19;20014;-61
2021/09/23 13:32:50;;;;;;;7.93;5.55;;;;;;;;;;7393949;19;20021;-58
2021/09/23 13:35:22;;;;;;;11.80;6.10;;;;;;;;;;7394116;19;20025;-51
2021/09/23 13:37:53;;;;;;;9.80;5.85;;;;;;;;;;7393612;19;20011;-53
2021/09/23 13:40:21;;;;;;;10.32;6.43;;;;;;;;;;7394527;19;20031;-52
2021/09/23 13:42:50;;;;;;;8.25;5.43;;;;;;;;;;7390483;19;20024;-47
2021/09/23 13:45:30;;;;;;;9.68;6.07;;;;;;;;;;7393540;19;20039;-50
2021/09/23 13:47:59;;;;;;;13.23;5.28;;;;;;;;;;7392875;19;20029;-50
2021/09/23 13:50:31;;;;;;;11.15;6.45;;;;;;;;;;7393348;19;20019;-50
2021/09/23 13:52:59;;;;;;;10.23;5.75;;;;;;;;;;7398908;19;20006;-56
2021/09/23 13:55:27;;;;;;;8.20;5.30;;;;;;;;;;7393304;19;20022;-59
2021/09/23 13:57:59;;;;;;;10.13;6.30;;;;;;;;;;7395728;19;20086;-54
2021/09/23 14:00:27;;;;;;;9.00;5.47;;;;;;;;;;7392511;19;20014;-55
2021/09/23 14:02:55;;;;;;;7.68;5.45;;;;;;;;;;7393009;19;20069;-53
2021/09/23 14:05:40;;;;;;;7.53;5.05;;;;;;;;;;7391864;19;20010;-62
2021/09/23 14:08:09;;;;;;;8.48;4.90;;;;;;;;;;7393722;19;20291;-53
2021/09/23 14:10:38;;;;;;;7.50;4.82;;;;;;;;;;7392537;19;20014;-58
2021/09/23 14:13:21;;;;;;;7.97;4.97;;;;;;;;;;7392623;19;20100;-55
2021/09/23 14:15:49;;;;;;;7.97;4.55;;;;;;;;;;7396456;19;20168;-49
2021/09/23 14:18:17;;;;;;;8.05;4.85;;;;;;;;;;7393117;19;20053;-53
2021/09/23 14:21:05;;;;;;;7.97;4.90;;;;;;;;;;7393643;19;20018;-49
2021/09/23 14:23:34;;;;;;;8.25;4.65;;;;;;;;;;7391865;19;20018;-50
2021/09/23 14:26:04;;;;;;;6.78;3.80;;;;;;;;;;7391916;19;20044;-52
2021/09/23 14:28:34;;;;;;;8.15;4.75;;;;;;;;;;7392120;19;20010;-50
2021/09/23 14:31:03;;;;;;;7.60;4.20;;;;;;;;;;7391620;19;20017;-52
2021/09/23 14:33:34;;;;;;;5.63;3.58;;;;;;;;;;7391618;19;20011;-55
2021/09/23 14:36:02;;;;;;;8.57;4.38;;;;;;;;;;7392881;19;20010;-61
2021/09/23 14:38:29;;;;;;;6.45;3.78;;;;;;;;;;7393191;19;20024;-55
2021/09/23 14:40:57;;;;;;;6.50;4.03;;;;;;;;;;7392381;19;20010;-58
2021/09/23 14:43:24;;;;;;;6.63;3.45;;;;;;;;;;7393197;19;20086;-47
2021/09/23 14:45:52;;;;;;;6.63;4.25;;;;;;;;;;7392986;19;20014;-62
2021/09/23 14:48:19;;;;;;;5.43;3.35;;;;;;;;;;7392820;19;20078;-56
2021/09/23 14:50:47;;;;;;;4.90;3.20;;;;;;;;;;7394378;19;20010;-50
2021/09/23 14:53:14;;;;;;;33.03;21.65;;;;;;;;;;7397520;19;20066;-47
2021/09/23 14:55:43;;;;;;;178.20;85.28;;;;;;;;;;7392682;19;20491;-61
2021/09/23 14:58:10;;;;;;;9.43;5.10;;;;;;;;;;7390952;19;20395;-47
2021/09/23 15:00:38;;;;;;;7.07;4.38;;;;;;;;;;7394925;19;20360;-52
2021/09/23 15:03:05;;;;;;;8.00;5.22;;;;;;;;;;7390900;19;20010;-45
2021/09/23 15:05:33;;;;;;;15.95;6.78;;;;;;;;;;7392143;19;20014;-51
2021/09/23 15:08:01;;;;;;;9.70;5.60;;;;;;;;;;7392198;19;20015;-49
2021/09/23 15:10:28;;;;;;;8.10;4.65;;;;;;;;;;7392322;19;20082;-53
2021/09/23 15:12:55;;;;;;;5.38;3.75;;;;;;;;;;7392065;19;20014;-45
2021/09/23 15:15:24;;;;;;;5.70;3.00;;;;;;;;;;7395685;19;20014;-52
2021/09/23 15:17:51;;;;;;;5.97;3.70;;;;;;;;;;7392524;19;20081;-55